PWSweather.com
Personal Weather Stations
Station Observations
KIDNAMPA57
Canyon County Idaho, Nampa, ID 83687

Canyon County IdahoNampa, ID 83687

Lat: 43.587235, Lon: -116.49831979999999

Elevation: 2615

Station Type: Davis Vantage Pro 2

www.rockinglweather.com

High Low Average
Temperature 36.3°F2.4°C 22.8°F-5.1°C 29.4°F-1.4°C
Dew Point 31.3°F-0.4°C 16.4°F-8.7°C 24.0°F-4.4°C
Winds 10.0 mph 16.1 kmh Calm Calm 2.0 mph SW3.2 kmh SW
Wind Gusts 14.0 mph22.5 kmh -- 4.0 mph6.4 kmh
Humidity 95% 57% 81%
Pressure 29.86 in1011.2 mb 29.53 in1000.0 mb -
Precipitation 0.00 in0.0 mm - -
Hour Temp Dew Point Humidity Winds Wind Gusts Pressure Precip Precip Rate Daily Precip Total
01:20 AM 36.3°F2.4°C 31.3°F-0.4°C 82% 5.0 mph WNW8.0 kmh WNW 11.0 mph17.7 kmh 29.54 in1000.3 mb 0.00 in0.0 mm 0.00 in0.0 mm 0.00 in0.0 mm
01:25 AM 35.0°F1.7°C 30.7°F-0.7°C 84% 4.0 mph SW6.4 kmh SW 6.0 mph9.7 kmh 29.54 in1000.3 mb 0.00 in0.0 mm 0.00 in0.0 mm 0.00 in0.0 mm
01:30 AM 34.2°F1.2°C 30.5°F-0.8°C 86% 4.0 mph W6.4 kmh W 7.0 mph11.3 kmh 29.54 in1000.3 mb 0.00 in0.0 mm 0.00 in0.0 mm 0.00 in0.0 mm
01:35 AM 33.9°F1.1°C 30.7°F-0.7°C 88% 3.0 mph WSW4.8 kmh WSW 7.0 mph11.3 kmh 29.54 in1000.3 mb 0.00 in0.0 mm 0.00 in0.0 mm 0.00 in0.0 mm
01:40 AM 33.6°F0.9°C 30.7°F-0.7°C 89% 3.0 mph W4.8 kmh W 7.0 mph11.3 kmh 29.53 in1000.0 mb 0.00 in0.0 mm 0.00 in0.0 mm 0.00 in0.0 mm
01:45 AM 33.5°F0.8°C 30.6°F-0.8°C 89% 3.0 mph WSW4.8 kmh WSW 7.0 mph11.3 kmh 29.53 in1000.0 mb 0.00 in0.0 mm 0.00 in0.0 mm 0.00 in0.0 mm
01:50 AM 33.4°F0.8°C 30.8°F-0.7°C 90% 3.0 mph W4.8 kmh W 6.0 mph9.7 kmh 29.53 in1000.0 mb 0.00 in0.0 mm 0.00 in0.0 mm 0.00 in0.0 mm
01:55 AM 33.2°F0.7°C 30.6°F-0.8°C 90% 2.0 mph WSW3.2 kmh WSW 8.0 mph12.9 kmh 29.54 in1000.3 mb 0.00 in0.0 mm 0.00 in0.0 mm 0.00 in0.0 mm
02:00 AM 33.0°F0.6°C 30.7°F-0.7°C 91% 3.0 mph WSW4.8 kmh WSW 8.0 mph12.9 kmh 29.54 in1000.3 mb 0.00 in0.0 mm 0.00 in0.0 mm 0.00 in0.0 mm
02:05 AM 33.0°F0.6°C 30.7°F-0.7°C 91% 1.0 mph SW1.6 kmh SW 3.0 mph4.8 kmh 29.54 in1000.3 mb 0.00 in0.0 mm 0.00 in0.0 mm 0.00 in0.0 mm
02:10 AM 32.8°F0.4°C 30.5°F-0.8°C 91% 3.0 mph W4.8 kmh W 4.0 mph6.4 kmh 29.54 in1000.3 mb 0.00 in0.0 mm 0.00 in0.0 mm 0.00 in0.0 mm
02:15 AM 32.7°F0.4°C 30.6°F-0.8°C 92% 4.0 mph WSW6.4 kmh WSW 6.0 mph9.7 kmh 29.54 in1000.3 mb 0.00 in0.0 mm 0.00 in0.0 mm 0.00 in0.0 mm
02:20 AM 32.7°F0.4°C 30.6°F-0.8°C 92% 4.0 mph WSW6.4 kmh WSW 7.0 mph11.3 kmh 29.55 in1000.7 mb 0.00 in0.0 mm 0.00 in0.0 mm 0.00 in0.0 mm
02:25 AM 32.6°F0.3°C 30.5°F-0.8°C 92% 4.0 mph WSW6.4 kmh WSW 12.0 mph19.3 kmh 29.54 in1000.3 mb 0.01 in0.3 mm 0.12 in3.0 mm 0.01 in0.3 mm
02:30 AM 32.5°F0.3°C 30.4°F-0.9°C 92% 6.0 mph WSW9.7 kmh WSW 12.0 mph19.3 kmh 29.55 in1000.7 mb 0.03 in0.8 mm 0.24 in6.1 mm 0.03 in0.8 mm
02:35 AM 32.5°F0.3°C 30.7°F-0.7°C 93% 5.0 mph WSW8.0 kmh WSW 10.0 mph16.1 kmh 29.55 in1000.7 mb 0.03 in0.8 mm 0.00 in0.0 mm 0.03 in0.8 mm
02:40 AM 32.4°F0.2°C 30.6°F-0.8°C 93% 5.0 mph WSW8.0 kmh WSW 10.0 mph16.1 kmh 29.55 in1000.7 mb 0.04 in1.0 mm 0.12 in3.0 mm 0.04 in1.0 mm
02:45 AM 32.3°F0.2°C 30.5°F-0.8°C 93% 6.0 mph WSW9.7 kmh WSW 11.0 mph17.7 kmh 29.55 in1000.7 mb 0.04 in1.0 mm 0.00 in0.0 mm 0.04 in1.0 mm
02:50 AM 32.3°F0.2°C 30.5°F-0.8°C 93% 5.0 mph WSW8.0 kmh WSW 11.0 mph17.7 kmh 29.55 in1000.7 mb 0.05 in1.3 mm 0.12 in3.0 mm 0.05 in1.3 mm
02:55 AM 32.1°F0.1°C 30.3°F-0.9°C 93% 2.0 mph W3.2 kmh W 11.0 mph17.7 kmh 29.55 in1000.7 mb 0.05 in1.3 mm 0.00 in0.0 mm 0.05 in1.3 mm
03:00 AM 32.0°F0.0°C 30.2°F-1.0°C 93% 2.0 mph WNW3.2 kmh WNW 11.0 mph17.7 kmh 29.55 in1000.7 mb 0.06 in1.5 mm 0.01 in0.3 mm 0.06 in1.5 mm
03:05 AM 32.0°F0.0°C 30.2°F-1.0°C 93% 4.0 mph W6.4 kmh W 6.0 mph9.7 kmh 29.54 in1000.3 mb 0.07 in1.8 mm 0.12 in3.0 mm 0.07 in1.8 mm
03:10 AM 31.9°F-0.1°C 30.1°F-1.1°C 93% 4.0 mph WSW6.4 kmh WSW 6.0 mph9.7 kmh 29.55 in1000.7 mb 0.07 in1.8 mm 0.00 in0.0 mm 0.07 in1.8 mm
03:15 AM 31.8°F-0.1°C 30.0°F-1.1°C 93% 1.0 mph WSW1.6 kmh WSW 6.0 mph9.7 kmh 29.56 in1001.0 mb 0.08 in2.0 mm 0.12 in3.0 mm 0.08 in2.0 mm
03:20 AM 31.8°F-0.1°C 30.0°F-1.1°C 93% 5.0 mph WSW8.0 kmh WSW 5.0 mph8.0 kmh 29.56 in1001.0 mb 0.08 in2.0 mm 0.00 in0.0 mm 0.08 in2.0 mm
03:25 AM 31.8°F-0.1°C 30.3°F-0.9°C 94% 3.0 mph WSW4.8 kmh WSW 5.0 mph8.0 kmh 29.56 in1001.0 mb 0.08 in2.0 mm 0.00 in0.0 mm 0.08 in2.0 mm
03:30 AM 31.8°F-0.1°C 30.3°F-0.9°C 94% 2.0 mph W3.2 kmh W 6.0 mph9.7 kmh 29.56 in1001.0 mb 0.08 in2.0 mm 0.00 in0.0 mm 0.08 in2.0 mm
03:35 AM 31.8°F-0.1°C 30.3°F-0.9°C 94% Calm Calm 4.0 mph6.4 kmh 29.56 in1001.0 mb 0.05 in1.3 mm 0.00 in0.0 mm 0.08 in2.0 mm
03:40 AM 31.7°F-0.2°C 30.2°F-1.0°C 94% Calm Calm 4.0 mph6.4 kmh 29.55 in1000.7 mb 0.06 in1.5 mm 0.12 in3.0 mm 0.09 in2.3 mm
03:45 AM 31.6°F-0.2°C 30.1°F-1.1°C 94% Calm Calm 4.0 mph6.4 kmh 29.56 in1001.0 mb 0.06 in1.5 mm 0.00 in0.0 mm 0.09 in2.3 mm
03:50 AM 31.3°F-0.4°C 29.8°F-1.2°C 94% Calm Calm -- 29.56 in1001.0 mb 0.05 in1.3 mm 0.00 in0.0 mm 0.09 in2.3 mm
03:55 AM 30.9°F-0.6°C 29.4°F-1.4°C 94% Calm Calm 1.0 mph1.6 kmh 29.56 in1001.0 mb 0.05 in1.3 mm 0.00 in0.0 mm 0.09 in2.3 mm
04:00 AM 30.7°F-0.7°C 29.2°F-1.6°C 94% Calm Calm 1.0 mph1.6 kmh 29.56 in1001.0 mb 0.05 in1.3 mm 0.00 in0.0 mm 0.09 in2.3 mm
04:05 AM 30.6°F-0.8°C 29.1°F-1.6°C 94% Calm Calm -- 29.56 in1001.0 mb 0.03 in0.8 mm 0.00 in0.0 mm 0.09 in2.3 mm
04:10 AM 30.4°F-0.9°C 28.9°F-1.7°C 94% Calm Calm -- 29.56 in1001.0 mb 0.03 in0.8 mm 0.00 in0.0 mm 0.09 in2.3 mm
04:15 AM 30.3°F-0.9°C 28.8°F-1.8°C 94% 1.0 mph W1.6 kmh W 3.0 mph4.8 kmh 29.56 in1001.0 mb 0.03 in0.8 mm 0.00 in0.0 mm 0.09 in2.3 mm
04:20 AM 30.1°F-1.1°C 28.6°F-1.9°C 94% 1.0 mph N1.6 kmh N 1.0 mph1.6 kmh 29.56 in1001.0 mb 0.01 in0.3 mm 0.00 in0.0 mm 0.09 in2.3 mm
04:25 AM 30.0°F-1.1°C 28.5°F-1.9°C 94% Calm Calm 2.0 mph3.2 kmh 29.56 in1001.0 mb 0.01 in0.3 mm 0.00 in0.0 mm 0.09 in2.3 mm
04:30 AM 30.0°F-1.1°C 28.5°F-1.9°C 94% Calm Calm 2.0 mph3.2 kmh 29.56 in1001.0 mb 0.01 in0.3 mm 0.00 in0.0 mm 0.09 in2.3 mm
04:35 AM 30.0°F-1.1°C 28.5°F-1.9°C 94% Calm Calm -- 29.57 in1001.4 mb 0.01 in0.3 mm 0.00 in0.0 mm 0.09 in2.3 mm
04:40 AM 29.8°F-1.2°C 28.3°F-2.1°C 94% Calm Calm -- 29.58 in1001.7 mb 0.01 in0.3 mm 0.00 in0.0 mm 0.09 in2.3 mm
04:45 AM 29.8°F-1.2°C 28.3°F-2.1°C 94% Calm Calm -- 29.58 in1001.7 mb 0.01 in0.3 mm 0.00 in0.0 mm 0.09 in2.3 mm
04:50 AM 30.0°F-1.1°C 28.5°F-1.9°C 94% Calm Calm -- 29.57 in1001.4 mb 0.00 in0.0 mm 0.00 in0.0 mm 0.09 in2.3 mm
04:55 AM 30.2°F-1.0°C 28.7°F-1.8°C 94% Calm Calm -- 29.56 in1001.0 mb 0.00 in0.0 mm 0.00 in0.0 mm 0.09 in2.3 mm
05:00 AM 30.3°F-0.9°C 28.8°F-1.8°C 94% Calm Calm -- 29.56 in1001.0 mb 0.00 in0.0 mm 0.00 in0.0 mm 0.09 in2.3 mm
05:05 AM 30.4°F-0.9°C 28.9°F-1.7°C 94% 1.0 mph NE1.6 kmh NE 5.0 mph8.0 kmh 29.55 in1000.7 mb 0.00 in0.0 mm 0.00 in0.0 mm 0.09 in2.3 mm
05:10 AM 30.5°F-0.8°C 29.0°F-1.7°C 94% Calm Calm 5.0 mph8.0 kmh 29.55 in1000.7 mb 0.00 in0.0 mm 0.00 in0.0 mm 0.09 in2.3 mm
05:15 AM 30.4°F-0.9°C 28.9°F-1.7°C 94% Calm Calm 5.0 mph8.0 kmh 29.57 in1001.4 mb 0.00 in0.0 mm 0.00 in0.0 mm 0.09 in2.3 mm
05:20 AM 30.5°F-0.8°C 29.0°F-1.7°C 94% Calm Calm -- 29.57 in1001.4 mb 0.00 in0.0 mm 0.00 in0.0 mm 0.09 in2.3 mm
05:25 AM 30.5°F-0.8°C 29.0°F-1.7°C 94% 1.0 mph NE1.6 kmh NE 2.0 mph3.2 kmh 29.57 in1001.4 mb 0.00 in0.0 mm 0.00 in0.0 mm 0.09 in2.3 mm
05:30 AM 30.5°F-0.8°C 29.0°F-1.7°C 94% Calm Calm 2.0 mph3.2 kmh 29.58 in1001.7 mb 0.01 in0.3 mm 0.12 in3.0 mm 0.10 in2.5 mm
05:35 AM 30.5°F-0.8°C 29.0°F-1.7°C 94% Calm Calm -- 29.58 in1001.7 mb 0.01 in0.3 mm 0.00 in0.0 mm 0.10 in2.5 mm
05:40 AM 30.4°F-0.9°C 28.9°F-1.7°C 94% Calm Calm -- 29.58 in1001.7 mb 0.01 in0.3 mm 0.00 in0.0 mm 0.10 in2.5 mm
05:45 AM 30.4°F-0.9°C 28.9°F-1.7°C 94% Calm Calm -- 29.58 in1001.7 mb 0.01 in0.3 mm 0.00 in0.0 mm 0.10 in2.5 mm
05:50 AM 30.0°F-1.1°C 28.5°F-1.9°C 94% Calm Calm -- 29.57 in1001.4 mb 0.01 in0.3 mm 0.00 in0.0 mm 0.10 in2.5 mm
05:55 AM 29.7°F-1.3°C 28.2°F-2.1°C 94% Calm Calm -- 29.56 in1001.0 mb 0.01 in0.3 mm 0.00 in0.0 mm 0.10 in2.5 mm
06:00 AM 29.6°F-1.3°C 28.1°F-2.2°C 94% Calm Calm -- 29.57 in1001.4 mb 0.01 in0.3 mm 0.00 in0.0 mm 0.10 in2.5 mm
06:05 AM 29.4°F-1.4°C 27.9°F-2.3°C 94% Calm Calm -- 29.57 in1001.4 mb 0.01 in0.3 mm 0.00 in0.0 mm 0.10 in2.5 mm
06:10 AM 29.1°F-1.6°C 27.6°F-2.4°C 94% Calm Calm -- 29.57 in1001.4 mb 0.01 in0.3 mm 0.00 in0.0 mm 0.10 in2.5 mm
06:15 AM 28.7°F-1.8°C 27.2°F-2.7°C 94% Calm Calm -- 29.58 in1001.7 mb 0.01 in0.3 mm 0.00 in0.0 mm 0.10 in2.5 mm
06:20 AM 28.5°F-1.9°C 27.0°F-2.8°C 94% Calm Calm -- 29.58 in1001.7 mb 0.01 in0.3 mm 0.00 in0.0 mm 0.10 in2.5 mm
06:25 AM 28.4°F-2.0°C 26.9°F-2.8°C 94% Calm Calm -- 29.58 in1001.7 mb 0.01 in0.3 mm 0.00 in0.0 mm 0.10 in2.5 mm
06:30 AM 28.3°F-2.1°C 26.8°F-2.9°C 94% Calm Calm -- 29.58 in1001.7 mb 0.01 in0.3 mm 0.00 in0.0 mm 0.10 in2.5 mm
06:35 AM 28.0°F-2.2°C 26.5°F-3.1°C 94% Calm Calm -- 29.58 in1001.7 mb 0.00 in0.0 mm 0.00 in0.0 mm 0.10 in2.5 mm
06:40 AM 28.0°F-2.2°C 26.5°F-3.1°C 94% Calm Calm -- 29.59 in1002.0 mb 0.00 in0.0 mm 0.00 in0.0 mm 0.10 in2.5 mm
06:45 AM 27.7°F-2.4°C 26.2°F-3.2°C 94% Calm Calm -- 29.60 in1002.4 mb 0.00 in0.0 mm 0.00 in0.0 mm 0.10 in2.5 mm
06:50 AM 28.1°F-2.2°C 26.6°F-3.0°C 94% Calm Calm -- 29.60 in1002.4 mb 0.00 in0.0 mm 0.00 in0.0 mm 0.10 in2.5 mm
06:55 AM 28.1°F-2.2°C 26.9°F-2.8°C 95% Calm Calm -- 29.60 in1002.4 mb 0.00 in0.0 mm 0.00 in0.0 mm 0.10 in2.5 mm
07:00 AM 27.8°F-2.3°C 26.3°F-3.2°C 94% Calm Calm -- 29.59 in1002.0 mb 0.00 in0.0 mm 0.00 in0.0 mm 0.10 in2.5 mm
07:05 AM 27.2°F-2.7°C 25.7°F-3.5°C 94% Calm Calm -- 29.60 in1002.4 mb 0.00 in0.0 mm 0.00 in0.0 mm 0.10 in2.5 mm
07:10 AM 26.6°F-3.0°C 25.1°F-3.8°C 94% Calm Calm -- 29.60 in1002.4 mb 0.00 in0.0 mm 0.00 in0.0 mm 0.10 in2.5 mm
07:15 AM 26.5°F-3.1°C 25.0°F-3.9°C 94% Calm Calm -- 29.61 in1002.7 mb 0.00 in0.0 mm 0.00 in0.0 mm 0.10 in2.5 mm
07:20 AM 27.1°F-2.7°C 25.6°F-3.6°C 94% Calm Calm -- 29.61 in1002.7 mb 0.00 in0.0 mm 0.00 in0.0 mm 0.10 in2.5 mm
07:25 AM 27.5°F-2.5°C 26.3°F-3.2°C 95% Calm Calm -- 29.61 in1002.7 mb 0.00 in0.0 mm 0.00 in0.0 mm 0.10 in2.5 mm
07:30 AM 27.3°F-2.6°C 26.1°F-3.3°C 95% 1.0 mph SE1.6 kmh SE 3.0 mph4.8 kmh 29.62 in1003.0 mb 0.00 in0.0 mm 0.00 in0.0 mm 0.10 in2.5 mm
07:35 AM 27.2°F-2.7°C 25.7°F-3.5°C 94% 1.0 mph SE1.6 kmh SE 3.0 mph4.8 kmh 29.63 in1003.4 mb 0.00 in0.0 mm 0.00 in0.0 mm 0.10 in2.5 mm
07:40 AM 27.3°F-2.6°C 25.8°F-3.4°C 94% 1.0 mph SE1.6 kmh SE 3.0 mph4.8 kmh 29.63 in1003.4 mb 0.00 in0.0 mm 0.00 in0.0 mm 0.10 in2.5 mm
07:45 AM 27.6°F-2.4°C 26.4°F-3.1°C 95% 3.0 mph S4.8 kmh S 5.0 mph8.0 kmh 29.63 in1003.4 mb 0.00 in0.0 mm 0.00 in0.0 mm 0.10 in2.5 mm
07:50 AM 28.0°F-2.2°C 26.8°F-2.9°C 95% Calm Calm 3.0 mph4.8 kmh 29.64 in1003.7 mb 0.00 in0.0 mm 0.00 in0.0 mm 0.10 in2.5 mm
07:55 AM 28.2°F-2.1°C 27.0°F-2.8°C 95% Calm Calm 3.0 mph4.8 kmh 29.63 in1003.4 mb 0.00 in0.0 mm 0.00 in0.0 mm 0.10 in2.5 mm
08:00 AM 28.3°F-2.1°C 27.1°F-2.7°C 95% 1.0 mph SSW1.6 kmh SSW 3.0 mph4.8 kmh 29.64 in1003.7 mb 0.00 in0.0 mm 0.00 in0.0 mm 0.10 in2.5 mm
08:05 AM 28.3°F-2.1°C 27.1°F-2.7°C 95% Calm Calm -- 29.64 in1003.7 mb 0.00 in0.0 mm 0.00 in0.0 mm 0.10 in2.5 mm
08:10 AM 28.0°F-2.2°C 26.8°F-2.9°C 95% Calm Calm -- 29.64 in1003.7 mb 0.00 in0.0 mm 0.00 in0.0 mm 0.10 in2.5 mm
08:15 AM 27.7°F-2.4°C 26.2°F-3.2°C 94% Calm Calm -- 29.64 in1003.7 mb 0.00 in0.0 mm 0.00 in0.0 mm 0.10 in2.5 mm
08:20 AM 27.6°F-2.4°C 26.1°F-3.3°C 94% 1.0 mph SSW1.6 kmh SSW 1.0 mph1.6 kmh 29.65 in1004.1 mb 0.00 in0.0 mm 0.00 in0.0 mm 0.10 in2.5 mm
08:25 AM 27.5°F-2.5°C 26.0°F-3.3°C 94% 1.0 mph SSW1.6 kmh SSW 2.0 mph3.2 kmh 29.65 in1004.1 mb 0.00 in0.0 mm 0.00 in0.0 mm 0.10 in2.5 mm
08:30 AM 27.5°F-2.5°C 26.3°F-3.2°C 95% 1.0 mph W1.6 kmh W 6.0 mph9.7 kmh 29.66 in1004.4 mb 0.00 in0.0 mm 0.00 in0.0 mm 0.10 in2.5 mm
08:35 AM 27.8°F-2.3°C 26.6°F-3.0°C 95% 4.0 mph WSW6.4 kmh WSW 6.0 mph9.7 kmh 29.66 in1004.4 mb 0.00 in0.0 mm 0.00 in0.0 mm 0.10 in2.5 mm
08:40 AM 27.7°F-2.4°C 26.2°F-3.2°C 94% 1.0 mph WSW1.6 kmh WSW 6.0 mph9.7 kmh 29.66 in1004.4 mb 0.00 in0.0 mm 0.00 in0.0 mm 0.10 in2.5 mm
08:45 AM 27.3°F-2.6°C 25.6°F-3.6°C 93% Calm Calm 6.0 mph9.7 kmh 29.66 in1004.4 mb 0.00 in0.0 mm 0.00 in0.0 mm 0.10 in2.5 mm
08:50 AM 26.8°F-2.9°C 25.1°F-3.8°C 93% 2.0 mph WSW3.2 kmh WSW 3.0 mph4.8 kmh 29.66 in1004.4 mb 0.00 in0.0 mm 0.00 in0.0 mm 0.10 in2.5 mm
08:55 AM 26.1°F-3.3°C 24.1°F-4.4°C 92% 1.0 mph WSW1.6 kmh WSW 3.0 mph4.8 kmh 29.67 in1004.7 mb 0.00 in0.0 mm 0.00 in0.0 mm 0.10 in2.5 mm
09:00 AM 25.9°F-3.4°C 23.9°F-4.5°C 92% Calm Calm 3.0 mph4.8 kmh 29.67 in1004.7 mb 0.00 in0.0 mm 0.00 in0.0 mm 0.10 in2.5 mm
09:05 AM 26.6°F-3.0°C 24.3°F-4.3°C 91% Calm Calm 1.0 mph1.6 kmh 29.67 in1004.7 mb 0.00 in0.0 mm 0.00 in0.0 mm 0.10 in2.5 mm
09:10 AM 27.2°F-2.7°C 23.9°F-4.5°C 87% Calm Calm 2.0 mph3.2 kmh 29.67 in1004.7 mb 0.00 in0.0 mm 0.00 in0.0 mm 0.10 in2.5 mm
09:15 AM 27.2°F-2.7°C 23.6°F-4.7°C 86% Calm Calm 3.0 mph4.8 kmh 29.67 in1004.7 mb 0.00 in0.0 mm 0.00 in0.0 mm 0.10 in2.5 mm
09:20 AM 26.9°F-2.8°C 23.0°F-5.0°C 85% Calm Calm 6.0 mph9.7 kmh 29.68 in1005.1 mb 0.00 in0.0 mm 0.00 in0.0 mm 0.10 in2.5 mm
09:25 AM 26.6°F-3.0°C 22.1°F-5.5°C 83% Calm Calm 6.0 mph9.7 kmh 29.67 in1004.7 mb 0.00 in0.0 mm 0.00 in0.0 mm 0.10 in2.5 mm
09:30 AM 26.0°F-3.3°C 21.8°F-5.7°C 84% Calm Calm 6.0 mph9.7 kmh 29.68 in1005.1 mb 0.00 in0.0 mm 0.00 in0.0 mm 0.10 in2.5 mm
09:35 AM 26.0°F-3.3°C 22.1°F-5.5°C 85% Calm Calm -- 29.69 in1005.4 mb 0.00 in0.0 mm 0.00 in0.0 mm 0.10 in2.5 mm
09:40 AM 26.3°F-3.2°C 22.1°F-5.5°C 84% Calm Calm 3.0 mph4.8 kmh 29.69 in1005.4 mb 0.00 in0.0 mm 0.00 in0.0 mm 0.10 in2.5 mm
09:45 AM 26.5°F-3.1°C 21.8°F-5.7°C 82% Calm Calm 3.0 mph4.8 kmh 29.70 in1005.8 mb 0.00 in0.0 mm 0.00 in0.0 mm 0.10 in2.5 mm
09:50 AM 26.0°F-3.3°C 21.3°F-5.9°C 82% Calm Calm 1.0 mph1.6 kmh 29.70 in1005.8 mb 0.00 in0.0 mm 0.00 in0.0 mm 0.10 in2.5 mm
09:55 AM 24.9°F-3.9°C 20.2°F-6.6°C 82% Calm Calm 1.0 mph1.6 kmh 29.70 in1005.8 mb 0.00 in0.0 mm 0.00 in0.0 mm 0.10 in2.5 mm
10:00 AM 24.4°F-4.2°C 20.0°F-6.7°C 83% 2.0 mph W3.2 kmh W 7.0 mph11.3 kmh 29.70 in1005.8 mb 0.00 in0.0 mm 0.00 in0.0 mm 0.10 in2.5 mm
10:05 AM 24.7°F-4.1°C 20.6°F-6.3°C 84% Calm Calm 4.0 mph6.4 kmh 29.71 in1006.1 mb 0.00 in0.0 mm 0.00 in0.0 mm 0.10 in2.5 mm
10:10 AM 25.2°F-3.8°C 20.8°F-6.2°C 83% Calm Calm 4.0 mph6.4 kmh 29.71 in1006.1 mb 0.00 in0.0 mm 0.00 in0.0 mm 0.10 in2.5 mm
10:15 AM 25.4°F-3.7°C 20.7°F-6.3°C 82% 1.0 mph WSW1.6 kmh WSW 4.0 mph6.4 kmh 29.71 in1006.1 mb 0.00 in0.0 mm 0.00 in0.0 mm 0.10 in2.5 mm
10:20 AM 25.7°F-3.5°C 20.4°F-6.4°C 80% 1.0 mph WSW1.6 kmh WSW 2.0 mph3.2 kmh 29.72 in1006.4 mb 0.00 in0.0 mm 0.00 in0.0 mm 0.10 in2.5 mm
10:25 AM 25.8°F-3.4°C 20.5°F-6.4°C 80% Calm Calm 5.0 mph8.0 kmh 29.72 in1006.4 mb 0.00 in0.0 mm 0.00 in0.0 mm 0.10 in2.5 mm
10:30 AM 25.9°F-3.4°C 20.6°F-6.3°C 80% Calm Calm 5.0 mph8.0 kmh 29.72 in1006.4 mb 0.00 in0.0 mm 0.00 in0.0 mm 0.10 in2.5 mm
10:35 AM 26.0°F-3.3°C 20.7°F-6.3°C 80% Calm Calm 1.0 mph1.6 kmh 29.72 in1006.4 mb 0.00 in0.0 mm 0.00 in0.0 mm 0.10 in2.5 mm
10:40 AM 26.6°F-3.0°C 20.7°F-6.3°C 78% Calm Calm 1.0 mph1.6 kmh 29.72 in1006.4 mb 0.00 in0.0 mm 0.00 in0.0 mm 0.10 in2.5 mm
10:45 AM 26.9°F-2.8°C 20.7°F-6.3°C 77% Calm Calm 2.0 mph3.2 kmh 29.72 in1006.4 mb 0.00 in0.0 mm 0.00 in0.0 mm 0.10 in2.5 mm
10:50 AM 27.8°F-2.3°C 20.6°F-6.3°C 74% Calm Calm 1.0 mph1.6 kmh 29.72 in1006.4 mb 0.00 in0.0 mm 0.00 in0.0 mm 0.10 in2.5 mm
10:55 AM 28.6°F-1.9°C 21.4°F-5.9°C 74% Calm Calm 1.0 mph1.6 kmh 29.72 in1006.4 mb 0.00 in0.0 mm 0.00 in0.0 mm 0.10 in2.5 mm
11:00 AM 29.3°F-1.5°C 21.1°F-6.1°C 71% Calm Calm 1.0 mph1.6 kmh 29.72 in1006.4 mb 0.00 in0.0 mm 0.00 in0.0 mm 0.10 in2.5 mm
11:05 AM 30.0°F-1.1°C 21.4°F-5.9°C 70% Calm Calm -- 29.72 in1006.4 mb 0.00 in0.0 mm 0.00 in0.0 mm 0.10 in2.5 mm
11:10 AM 30.3°F-0.9°C 21.4°F-5.9°C 69% Calm Calm -- 29.74 in1007.1 mb 0.00 in0.0 mm 0.00 in0.0 mm 0.10 in2.5 mm
11:15 AM 30.8°F-0.7°C 21.5°F-5.8°C 68% Calm Calm -- 29.73 in1006.8 mb 0.00 in0.0 mm 0.00 in0.0 mm 0.10 in2.5 mm
11:20 AM 31.0°F-0.6°C 21.3°F-5.9°C 67% Calm Calm -- 29.73 in1006.8 mb 0.00 in0.0 mm 0.00 in0.0 mm 0.10 in2.5 mm
11:25 AM 31.4°F-0.3°C 21.4°F-5.9°C 66% 2.0 mph NW3.2 kmh NW 6.0 mph9.7 kmh 29.73 in1006.8 mb 0.00 in0.0 mm 0.00 in0.0 mm 0.10 in2.5 mm
11:30 AM 32.1°F0.1°C 21.3°F-5.9°C 64% Calm Calm 6.0 mph9.7 kmh 29.74 in1007.1 mb 0.00 in0.0 mm 0.00 in0.0 mm 0.10 in2.5 mm
11:35 AM 32.0°F0.0°C 21.6°F-5.8°C 65% 1.0 mph NW1.6 kmh NW 4.0 mph6.4 kmh 29.74 in1007.1 mb 0.00 in0.0 mm 0.00 in0.0 mm 0.10 in2.5 mm
11:40 AM 32.6°F0.3°C 21.0°F-6.1°C 62% 1.0 mph NW1.6 kmh NW 4.0 mph6.4 kmh 29.74 in1007.1 mb 0.00 in0.0 mm 0.00 in0.0 mm 0.10 in2.5 mm
11:45 AM 32.7°F0.4°C 21.9°F-5.6°C 64% 3.0 mph NW4.8 kmh NW 4.0 mph6.4 kmh 29.74 in1007.1 mb 0.00 in0.0 mm 0.00 in0.0 mm 0.10 in2.5 mm
11:50 AM 32.8°F0.4°C 21.6°F-5.8°C 63% 2.0 mph N3.2 kmh N 5.0 mph8.0 kmh 29.74 in1007.1 mb 0.00 in0.0 mm 0.00 in0.0 mm 0.10 in2.5 mm
11:55 AM 33.0°F0.6°C 21.8°F-5.7°C 63% 3.0 mph N4.8 kmh N 5.0 mph8.0 kmh 29.74 in1007.1 mb 0.00 in0.0 mm 0.00 in0.0 mm 0.10 in2.5 mm
12:00 PM 32.9°F0.5°C 21.3°F-5.9°C 62% 5.0 mph NW8.0 kmh NW 7.0 mph11.3 kmh 29.75 in1007.5 mb 0.00 in0.0 mm 0.00 in0.0 mm 0.10 in2.5 mm
12:05 PM 33.1°F0.6°C 20.7°F-6.3°C 60% 5.0 mph NNE8.0 kmh NNE 6.0 mph9.7 kmh 29.74 in1007.1 mb 0.00 in0.0 mm 0.00 in0.0 mm 0.10 in2.5 mm
12:10 PM 33.5°F0.8°C 21.5°F-5.8°C 61% 1.0 mph NNW1.6 kmh NNW 6.0 mph9.7 kmh 29.74 in1007.1 mb 0.00 in0.0 mm 0.00 in0.0 mm 0.10 in2.5 mm
12:15 PM 33.4°F0.8°C 20.6°F-6.3°C 59% 3.0 mph N4.8 kmh N 6.0 mph9.7 kmh 29.74 in1007.1 mb 0.00 in0.0 mm 0.00 in0.0 mm 0.10 in2.5 mm
12:20 PM 33.0°F0.6°C 20.3°F-6.5°C 59% 5.0 mph WSW8.0 kmh WSW 7.0 mph11.3 kmh 29.75 in1007.5 mb 0.00 in0.0 mm 0.00 in0.0 mm 0.10 in2.5 mm
12:25 PM 33.0°F0.6°C 21.0°F-6.1°C 61% 4.0 mph NW6.4 kmh NW 7.0 mph11.3 kmh 29.75 in1007.5 mb 0.00 in0.0 mm 0.00 in0.0 mm 0.10 in2.5 mm
12:30 PM 33.0°F0.6°C 21.0°F-6.1°C 61% 2.0 mph W3.2 kmh W 9.0 mph14.5 kmh 29.75 in1007.5 mb 0.00 in0.0 mm 0.00 in0.0 mm 0.10 in2.5 mm
12:35 PM 32.7°F0.4°C 20.8°F-6.2°C 61% 5.0 mph W8.0 kmh W 9.0 mph14.5 kmh 29.75 in1007.5 mb 0.00 in0.0 mm 0.00 in0.0 mm 0.10 in2.5 mm
12:40 PM 32.9°F0.5°C 21.7°F-5.7°C 63% 2.0 mph W3.2 kmh W 9.0 mph14.5 kmh 29.75 in1007.5 mb 0.00 in0.0 mm 0.00 in0.0 mm 0.10 in2.5 mm
12:45 PM 33.0°F0.6°C 21.4°F-5.9°C 62% 6.0 mph NW9.7 kmh NW 10.0 mph16.1 kmh 29.75 in1007.5 mb 0.00 in0.0 mm 0.00 in0.0 mm 0.10 in2.5 mm
12:50 PM 33.0°F0.6°C 21.0°F-6.1°C 61% 3.0 mph W4.8 kmh W 10.0 mph16.1 kmh 29.75 in1007.5 mb 0.00 in0.0 mm 0.00 in0.0 mm 0.10 in2.5 mm
12:55 PM 32.8°F0.4°C 21.6°F-5.8°C 63% 5.0 mph WSW8.0 kmh WSW 10.0 mph16.1 kmh 29.75 in1007.5 mb 0.00 in0.0 mm 0.00 in0.0 mm 0.10 in2.5 mm
01:00 PM 33.1°F0.6°C 21.1°F-6.1°C 61% 10.0 mph WNW16.1 kmh WNW 11.0 mph17.7 kmh 29.76 in1007.8 mb 0.00 in0.0 mm 0.00 in0.0 mm 0.10 in2.5 mm
01:05 PM 32.9°F0.5°C 20.2°F-6.6°C 59% 6.0 mph WNW9.7 kmh WNW 10.0 mph16.1 kmh 29.76 in1007.8 mb 0.00 in0.0 mm 0.00 in0.0 mm 0.10 in2.5 mm
01:10 PM 32.9°F0.5°C 20.9°F-6.2°C 61% 7.0 mph WNW11.3 kmh WNW 10.0 mph16.1 kmh 29.76 in1007.8 mb 0.00 in0.0 mm 0.00 in0.0 mm 0.10 in2.5 mm
01:15 PM 32.9°F0.5°C 20.6°F-6.3°C 60% 4.0 mph WNW6.4 kmh WNW 10.0 mph16.1 kmh 29.76 in1007.8 mb 0.00 in0.0 mm 0.00 in0.0 mm 0.10 in2.5 mm
01:20 PM 32.8°F0.4°C 19.3°F-7.1°C 57% 5.0 mph W8.0 kmh W 10.0 mph16.1 kmh 29.76 in1007.8 mb 0.00 in0.0 mm 0.00 in0.0 mm 0.10 in2.5 mm
01:25 PM 32.9°F0.5°C 20.2°F-6.6°C 59% 8.0 mph WSW12.9 kmh WSW 11.0 mph17.7 kmh 29.75 in1007.5 mb 0.00 in0.0 mm 0.00 in0.0 mm 0.10 in2.5 mm
01:30 PM 33.1°F0.6°C 20.4°F-6.4°C 59% 4.0 mph WSW6.4 kmh WSW 11.0 mph17.7 kmh 29.76 in1007.8 mb 0.00 in0.0 mm 0.00 in0.0 mm 0.10 in2.5 mm
01:35 PM 33.4°F0.8°C 20.2°F-6.6°C 58% 7.0 mph WSW11.3 kmh WSW 10.0 mph16.1 kmh 29.76 in1007.8 mb 0.00 in0.0 mm 0.00 in0.0 mm 0.10 in2.5 mm
01:40 PM 33.3°F0.7°C 20.1°F-6.6°C 58% 6.0 mph SW9.7 kmh SW 14.0 mph22.5 kmh 29.76 in1007.8 mb 0.00 in0.0 mm 0.00 in0.0 mm 0.10 in2.5 mm
01:45 PM 33.3°F0.7°C 20.1°F-6.6°C 58% 6.0 mph WNW9.7 kmh WNW 14.0 mph22.5 kmh 29.76 in1007.8 mb 0.00 in0.0 mm 0.00 in0.0 mm 0.10 in2.5 mm
01:50 PM 33.6°F0.9°C 20.0°F-6.7°C 57% 3.0 mph W4.8 kmh W 6.0 mph9.7 kmh 29.75 in1007.5 mb 0.00 in0.0 mm 0.00 in0.0 mm 0.10 in2.5 mm
01:55 PM 33.8°F1.0°C 20.2°F-6.6°C 57% 5.0 mph W8.0 kmh W 7.0 mph11.3 kmh 29.75 in1007.5 mb 0.00 in0.0 mm 0.00 in0.0 mm 0.10 in2.5 mm
02:00 PM 33.9°F1.1°C 21.5°F-5.8°C 60% 4.0 mph WSW6.4 kmh WSW 8.0 mph12.9 kmh 29.76 in1007.8 mb 0.00 in0.0 mm 0.00 in0.0 mm 0.10 in2.5 mm
02:05 PM 33.9°F1.1°C 21.1°F-6.1°C 59% 6.0 mph WNW9.7 kmh WNW 7.0 mph11.3 kmh 29.76 in1007.8 mb 0.00 in0.0 mm 0.00 in0.0 mm 0.10 in2.5 mm
02:10 PM 33.9°F1.1°C 21.1°F-6.1°C 59% 6.0 mph NW9.7 kmh NW 10.0 mph16.1 kmh 29.76 in1007.8 mb 0.00 in0.0 mm 0.00 in0.0 mm 0.10 in2.5 mm
02:15 PM 34.0°F1.1°C 20.8°F-6.2°C 58% 4.0 mph W6.4 kmh W 10.0 mph16.1 kmh 29.76 in1007.8 mb 0.00 in0.0 mm 0.00 in0.0 mm 0.10 in2.5 mm
02:20 PM 34.0°F1.1°C 21.2°F-6.0°C 59% 8.0 mph WSW12.9 kmh WSW 10.0 mph16.1 kmh 29.76 in1007.8 mb 0.00 in0.0 mm 0.00 in0.0 mm 0.10 in2.5 mm
02:25 PM 34.0°F1.1°C 20.8°F-6.2°C 58% 3.0 mph WSW4.8 kmh WSW 12.0 mph19.3 kmh 29.76 in1007.8 mb 0.00 in0.0 mm 0.00 in0.0 mm 0.10 in2.5 mm
02:30 PM 33.9°F1.1°C 20.3°F-6.5°C 57% 2.0 mph W3.2 kmh W 12.0 mph19.3 kmh 29.75 in1007.5 mb 0.00 in0.0 mm 0.00 in0.0 mm 0.10 in2.5 mm
02:35 PM 33.9°F1.1°C 20.3°F-6.5°C 57% 6.0 mph WSW9.7 kmh WSW 11.0 mph17.7 kmh 29.75 in1007.5 mb 0.00 in0.0 mm 0.00 in0.0 mm 0.10 in2.5 mm
08:45 PM 28.5°F-1.9°C 19.6°F-6.9°C 69% Calm Calm -- 29.84 in1010.5 mb 0.00 in0.0 mm 0.00 in0.0 mm 0.10 in2.5 mm
08:50 PM 28.4°F-2.0°C 19.9°F-6.7°C 70% Calm Calm -- 29.84 in1010.5 mb 0.00 in0.0 mm 0.00 in0.0 mm 0.10 in2.5 mm
08:55 PM 28.0°F-2.2°C 19.8°F-6.8°C 71% Calm Calm -- 29.84 in1010.5 mb 0.00 in0.0 mm 0.00 in0.0 mm 0.10 in2.5 mm
09:00 PM 27.4°F-2.6°C 19.6°F-6.9°C 72% Calm Calm -- 29.84 in1010.5 mb 0.00 in0.0 mm 0.00 in0.0 mm 0.10 in2.5 mm
09:05 PM 27.2°F-2.7°C 19.4°F-7.0°C 72% Calm Calm -- 29.84 in1010.5 mb 0.00 in0.0 mm 0.00 in0.0 mm 0.10 in2.5 mm
09:10 PM 27.2°F-2.7°C 19.7°F-6.8°C 73% Calm Calm -- 29.85 in1010.8 mb 0.00 in0.0 mm 0.00 in0.0 mm 0.10 in2.5 mm
09:15 PM 27.3°F-2.6°C 19.5°F-6.9°C 72% Calm Calm -- 29.84 in1010.5 mb 0.00 in0.0 mm 0.00 in0.0 mm 0.10 in2.5 mm
09:20 PM 27.2°F-2.7°C 19.4°F-7.0°C 72% Calm Calm -- 29.84 in1010.5 mb 0.00 in0.0 mm 0.00 in0.0 mm 0.10 in2.5 mm
09:25 PM 26.9°F-2.8°C 18.8°F-7.3°C 71% Calm Calm -- 29.84 in1010.5 mb 0.00 in0.0 mm 0.00 in0.0 mm 0.10 in2.5 mm
09:30 PM 26.1°F-3.3°C 18.0°F-7.8°C 71% Calm Calm -- 29.84 in1010.5 mb 0.00 in0.0 mm 0.00 in0.0 mm 0.10 in2.5 mm
09:35 PM 25.5°F-3.6°C 17.8°F-7.9°C 72% Calm Calm -- 29.84 in1010.5 mb 0.00 in0.0 mm 0.00 in0.0 mm 0.10 in2.5 mm
09:40 PM 24.5°F-4.2°C 17.4°F-8.1°C 74% Calm Calm -- 29.84 in1010.5 mb 0.00 in0.0 mm 0.00 in0.0 mm 0.10 in2.5 mm
09:45 PM 24.5°F-4.2°C 17.7°F-7.9°C 75% Calm Calm -- 29.84 in1010.5 mb 0.00 in0.0 mm 0.00 in0.0 mm 0.10 in2.5 mm
09:50 PM 24.3°F-4.3°C 17.2°F-8.2°C 74% Calm Calm -- 29.85 in1010.8 mb 0.00 in0.0 mm 0.00 in0.0 mm 0.10 in2.5 mm
09:55 PM 23.9°F-4.5°C 17.1°F-8.3°C 75% Calm Calm -- 29.85 in1010.8 mb 0.00 in0.0 mm 0.00 in0.0 mm 0.10 in2.5 mm
10:00 PM 23.7°F-4.6°C 17.0°F-8.3°C 75% Calm Calm -- 29.85 in1010.8 mb 0.00 in0.0 mm 0.00 in0.0 mm 0.10 in2.5 mm
10:05 PM 23.1°F-4.9°C 16.4°F-8.7°C 75% Calm Calm -- 29.85 in1010.8 mb 0.00 in0.0 mm 0.00 in0.0 mm 0.10 in2.5 mm
10:10 PM 22.8°F-5.1°C 16.4°F-8.7°C 76% Calm Calm -- 29.85 in1010.8 mb 0.00 in0.0 mm 0.00 in0.0 mm 0.10 in2.5 mm
10:15 PM 23.0°F-5.0°C 16.9°F-8.4°C 77% Calm Calm -- 29.85 in1010.8 mb 0.00 in0.0 mm 0.00 in0.0 mm 0.10 in2.5 mm
10:20 PM 23.4°F-4.8°C 17.9°F-7.8°C 79% Calm Calm -- 29.85 in1010.8 mb 0.00 in0.0 mm 0.00 in0.0 mm 0.10 in2.5 mm
10:25 PM 24.2°F-4.3°C 18.6°F-7.4°C 79% 1.0 mph NW1.6 kmh NW 1.0 mph1.6 kmh 29.85 in1010.8 mb 0.00 in0.0 mm 0.00 in0.0 mm 0.10 in2.5 mm
10:30 PM 24.9°F-3.9°C 19.0°F-7.2°C 78% Calm Calm 1.0 mph1.6 kmh 29.85 in1010.8 mb 0.00 in0.0 mm 0.00 in0.0 mm 0.10 in2.5 mm
10:35 PM 25.5°F-3.6°C 19.3°F-7.1°C 77% Calm Calm -- 29.85 in1010.8 mb 0.00 in0.0 mm 0.00 in0.0 mm 0.10 in2.5 mm
10:40 PM 25.6°F-3.6°C 19.4°F-7.0°C 77% Calm Calm -- 29.85 in1010.8 mb 0.00 in0.0 mm 0.00 in0.0 mm 0.10 in2.5 mm
10:45 PM 25.5°F-3.6°C 19.3°F-7.1°C 77% Calm Calm -- 29.85 in1010.8 mb 0.00 in0.0 mm 0.00 in0.0 mm 0.10 in2.5 mm
10:50 PM 25.7°F-3.5°C 19.5°F-6.9°C 77% Calm Calm -- 29.85 in1010.8 mb 0.00 in0.0 mm 0.00 in0.0 mm 0.10 in2.5 mm
10:55 PM 25.9°F-3.4°C 19.4°F-7.0°C 76% Calm Calm -- 29.85 in1010.8 mb 0.00 in0.0 mm 0.00 in0.0 mm 0.10 in2.5 mm
11:00 PM 26.2°F-3.2°C 20.0°F-6.7°C 77% Calm Calm -- 29.85 in1010.8 mb 0.00 in0.0 mm 0.00 in0.0 mm 0.10 in2.5 mm
11:05 PM 26.4°F-3.1°C 19.9°F-6.7°C 76% Calm Calm -- 29.85 in1010.8 mb 0.00 in0.0 mm 0.00 in0.0 mm 0.10 in2.5 mm
11:10 PM 26.6°F-3.0°C 20.1°F-6.6°C 76% Calm Calm -- 29.85 in1010.8 mb 0.00 in0.0 mm 0.00 in0.0 mm 0.10 in2.5 mm
11:15 PM 27.1°F-2.7°C 20.2°F-6.6°C 75% Calm Calm -- 29.86 in1011.2 mb 0.00 in0.0 mm 0.00 in0.0 mm 0.10 in2.5 mm
11:20 PM 27.4°F-2.6°C 20.2°F-6.6°C 74% Calm Calm -- 29.85 in1010.8 mb 0.00 in0.0 mm 0.00 in0.0 mm 0.10 in2.5 mm
11:25 PM 27.7°F-2.4°C 20.5°F-6.4°C 74% 2.0 mph NW3.2 kmh NW 4.0 mph6.4 kmh 29.85 in1010.8 mb 0.00 in0.0 mm 0.00 in0.0 mm 0.10 in2.5 mm
11:30 PM 27.9°F-2.3°C 20.4°F-6.4°C 73% Calm Calm 4.0 mph6.4 kmh 29.86 in1011.2 mb 0.00 in0.0 mm 0.00 in0.0 mm 0.10 in2.5 mm
11:35 PM 28.3°F-2.1°C 20.8°F-6.2°C 73% Calm Calm 2.0 mph3.2 kmh 29.86 in1011.2 mb 0.00 in0.0 mm 0.00 in0.0 mm 0.10 in2.5 mm
11:40 PM 28.5°F-1.9°C 21.0°F-6.1°C 73% Calm Calm 3.0 mph4.8 kmh 29.86 in1011.2 mb 0.00 in0.0 mm 0.00 in0.0 mm 0.10 in2.5 mm
11:45 PM 28.5°F-1.9°C 21.3°F-5.9°C 74% Calm Calm 3.0 mph4.8 kmh 29.86 in1011.2 mb 0.00 in0.0 mm 0.00 in0.0 mm 0.10 in2.5 mm
11:50 PM 28.4°F-2.0°C 21.5°F-5.8°C 75% Calm Calm -- 29.86 in1011.2 mb 0.00 in0.0 mm 0.00 in0.0 mm 0.10 in2.5 mm
11:55 PM 28.4°F-2.0°C 21.5°F-5.8°C 75% 1.0 mph SE1.6 kmh SE 1.0 mph1.6 kmh 29.86 in1011.2 mb 0.00 in0.0 mm 0.00 in0.0 mm 0.10 in2.5 mm